Time;durP1;ratioP1;P1;durP2;ratioP2;P2;SDS_P1;SDS_P2;PMS_P1;PMS_P2;Temp;Humidity;BMP_temperature;BMP_pressure;BME280_temperature;BME280_humidity;BME280_pressure;Samples;Min_cycle;Max_cycle;Signal;HPM_P1;HPM_P2
2021/11/24 00:01:44;;;;;;;;;;;;;;;;;;;;;
2021/11/24 00:05:05;;;;;;;20.50;10.40;;;;;;;6.33;100.00;101979.92;102370;1318;63306;-77
2021/11/24 00:07:45;;;;;;;;;;;;;;;;;;;;;
2021/11/24 00:10:51;;;;;;;28.70;13.40;;;;;;;6.33;100.00;101972.55;102534;1317;75919;-77
2021/11/24 00:13:55;;;;;;;24.30;12.20;;;;;;;6.33;100.00;101972.17;102424;1316;71470;-76
2021/11/24 00:17:21;;;;;;;;;;;;;;;;;;;;;
2021/11/24 00:20:50;;;;;;;29.80;14.00;;;;;;;6.30;100.00;101975.19;102320;1318;63388;-77
2021/11/24 00:24:10;;;;;;;28.10;12.30;;;;;;;6.30;100.00;101973.46;102617;1317;61678;-78
2021/11/24 00:27:02;;;;;;;22.80;12.60;;;;;;;6.30;100.00;101965.58;102154;1318;76117;-77
2021/11/24 00:30:03;;;;;;;;;;;;;;;;;;;;;
2021/11/24 00:33:28;;;;;;;;;;;;;;;;;;;;;
2021/11/24 00:36:57;;;;;;;27.70;13.10;;;;;;;6.29;100.00;101959.83;102429;1317;61300;-77
2021/11/24 00:39:56;;;;;;;24.00;12.50;;;;;;;6.25;100.00;101956.79;102307;1317;61380;-77
2021/11/24 00:42:46;;;;;;;25.30;12.40;;;;;;;6.26;100.00;101956.42;102662;1322;74986;-77
2021/11/24 00:45:45;;;;;;;;;;;;;;;;;;;;;
2021/11/24 00:48:15;;;;;;;26.20;12.50;;;;;;;6.26;100.00;101962.74;102326;1318;73069;-77
2021/11/24 00:51:23;;;;;;;25.90;12.80;;;;;;;6.25;100.00;101964.20;102364;1317;61448;-77
2021/11/24 00:54:51;;;;;;;26.80;14.00;;;;;;;6.24;100.00;101961.95;102381;1317;62422;-78
2021/11/24 00:58:08;;;;;;;27.40;13.30;;;;;;;6.25;100.00;101961.00;102237;1318;77063;-80
2021/11/24 01:01:01;;;;;;;23.10;11.70;;;;;;;6.26;100.00;101954.13;102319;1319;71854;-77
2021/11/24 01:04:15;;;;;;;24.40;10.60;;;;;;;6.26;100.00;101952.55;102237;1318;74039;-77
2021/11/24 01:07:43;;;;;;;28.00;12.80;;;;;;;6.27;100.00;101957.23;102384;1319;63031;-79
2021/11/24 01:10:57;;;;;;;25.50;11.90;;;;;;;6.28;100.00;101957.13;102354;1318;61661;-79
2021/11/24 01:17:22;;;;;;;;;;;;;;;;;;;;;
2021/11/24 01:20:51;;;;;;;30.60;12.00;;;;;;;6.28;100.00;101946.73;102310;1318;73366;-79
2021/11/24 01:23:58;;;;;;;28.10;11.70;;;;;;;6.29;100.00;101941.38;102611;1318;62028;-80
2021/11/24 01:27:07;;;;;;;15.50;7.90;;;;;;;6.29;100.00;101940.73;102345;1318;60756;-77
2021/11/24 01:30:16;;;;;;;;;;;;;;;;;;;;;
2021/11/24 01:33:23;;;;;;;20.90;8.70;;;;;;;6.25;100.00;101949.77;102416;1315;70917;-79
2021/11/24 01:36:32;;;;;;;23.60;10.20;;;;;;;6.25;100.00;101949.11;102439;1318;73442;-79
2021/11/24 01:39:46;;;;;;;26.70;11.30;;;;;;;6.27;100.00;101944.04;102377;1315;63440;-77
2021/11/24 01:43:04;;;;;;;25.30;11.60;;;;;;;6.29;100.00;101937.88;102324;1323;61771;-79
2021/11/24 01:46:30;;;;;;;23.00;11.50;;;;;;;6.31;100.00;101934.53;102310;1318;76366;-77
2021/11/24 01:49:57;;;;;;;21.10;10.50;;;;;;;6.31;100.00;101926.48;102460;1318;73043;-78
2021/11/24 01:53:00;;;;;;;18.10;9.00;;;;;;;6.32;100.00;101924.80;102291;1318;73252;-77
2021/11/24 01:56:00;;;;;;;22.00;10.90;;;;;;;6.34;100.00;101920.64;102218;1318;63315;-77
2021/11/24 01:58:51;;;;;;;19.50;9.80;;;;;;;6.36;100.00;101919.79;102323;1323;61624;-77
2021/11/24 02:02:08;;;;;;;25.70;11.20;;;;;;;6.34;100.00;101912.38;102336;1319;75203;-79
2021/11/24 02:05:35;;;;;;;;;;;;;;;;;;;;;
2021/11/24 02:09:04;;;;;;;20.90;10.40;;;;;;;6.26;100.00;101906.29;103840;1315;74345;-79
2021/11/24 02:12:31;;;;;;;28.40;11.50;;;;;;;6.24;100.00;101901.36;102455;1316;62255;-77
2021/11/24 02:15:39;;;;;;;19.70;11.20;;;;;;;6.24;100.00;101901.03;102348;1318;61224;-76
2021/11/24 02:19:07;;;;;;;22.10;10.80;;;;;;;6.24;100.00;101899.30;102461;1318;75156;-78
2021/11/24 02:22:07;;;;;;;;;;;;;;;;;;;;;
2021/11/24 02:25:35;;;;;;;26.20;10.60;;;;;;;6.26;100.00;101894.56;102355;1317;73007;-77
2021/11/24 02:29:03;;;;;;;20.90;10.00;;;;;;;6.26;100.00;101892.64;102395;1316;62518;-77
2021/11/24 02:32:30;;;;;;;19.80;9.40;;;;;;;6.27;100.00;101888.15;102265;1317;61255;-77
2021/11/24 02:35:15;;;;;;;;;;;;;;;6.26;100.00;101879.65;102387;1316;75660;-77
2021/11/24 02:38:06;;;;;;;;;;;;;;;;;;;;;
2021/11/24 02:41:27;;;;;;;24.80;10.60;;;;;;;6.27;100.00;101879.16;102448;1317;73031;-76
2021/11/24 02:44:34;;;;;;;23.90;10.40;;;;;;;6.27;100.00;101880.73;102148;1317;63095;-76
2021/11/24 02:47:52;;;;;;;21.80;11.10;;;;;;;6.26;100.00;101876.77;102200;1318;61622;-76
2021/11/24 02:51:02;;;;;;;;;;;;;;;;;;;;;
2021/11/24 02:54:11;;;;;;;20.10;9.50;;;;;;;6.25;100.00;101864.74;102400;1317;71437;-76
2021/11/24 02:57:35;;;;;;;;;;;;;;;;;;;;;
2021/11/24 03:01:01;;;;;;;;;;;;;;;;;;;;;
2021/11/24 03:04:31;;;;;;;20.60;9.50;;;;;;;6.23;100.00;101868.41;102676;1316;61239;-79
2021/11/24 03:07:58;;;;;;;18.30;8.60;;;;;;;6.24;100.00;101864.63;102791;1318;75998;-80
2021/11/24 03:11:03;;;;;;;;;;;;;;;;;;;;;
2021/11/24 03:14:32;;;;;;;18.80;9.00;;;;;;;6.22;100.00;101858.14;102462;1319;73232;-77
2021/11/24 03:17:59;;;;;;;23.30;10.10;;;;;;;6.20;100.00;101858.51;102471;1318;62048;-78
2021/11/24 03:20:56;;;;;;;;;;;;;;;;;;;;;
2021/11/24 03:24:04;;;;;;;22.90;9.60;;;;;;;6.22;100.00;101853.04;102428;1318;75002;-77
2021/11/24 03:27:11;;;;;;;22.40;10.50;;;;;;;6.25;100.00;101854.01;102487;1318;72462;-79
2021/11/24 03:30:33;;;;;;;;;;;;;;;;;;;;;
2021/11/24 03:34:02;;;;;;;22.10;10.40;;;;;;;6.24;100.00;101851.83;102218;1318;63708;-77
2021/11/24 03:37:29;;;;;;;21.30;9.70;;;;;;;6.22;100.00;101853.07;102560;1316;61296;-80
2021/11/24 03:40:54;;;;;;;;;;;;;;;;;;;;;
2021/11/24 03:44:12;;;;;;;25.90;10.00;;;;;;;6.23;100.00;101842.96;102196;1319;71672;-75
2021/11/24 03:47:42;;;;;;;30.40;12.20;;;;;;;6.23;100.00;101841.92;102334;1319;74085;-76
2021/11/24 03:50:47;;;;;;;;;;;;;;;;;;;;;
2021/11/24 03:53:32;;;;;;;;;;;;;;;;;;;;;
2021/11/24 03:57:02;;;;;;;21.90;9.80;;;;;;;6.25;100.00;101835.61;102321;1318;74771;-78
2021/11/24 04:00:29;;;;;;;28.60;11.00;;;;;;;6.23;100.00;101836.29;102193;1318;72501;-78
2021/11/24 04:07:28;;;;;;;20.00;9.80;;;;;;;6.22;100.00;101833.36;102231;1319;62681;-77
2021/11/24 04:10:55;;;;;;;25.10;10.60;;;;;;;6.22;100.00;101829.34;102299;1318;61730;-77
2021/11/24 04:14:14;;;;;;;;;;;;;;;;;;;;;
2021/11/24 04:17:51;;;;;;;24.70;10.10;;;;;;;6.26;100.00;101831.80;102298;1318;72362;-77
2021/11/24 04:21:10;;;;;;;22.30;10.30;;;;;;;6.30;100.00;101830.98;102301;1318;73982;-77
2021/11/24 04:24:26;;;;;;;24.40;11.40;;;;;;;6.32;100.00;101827.48;102731;1318;61834;-77
2021/11/24 04:27:54;;;;;;;23.60;10.10;;;;;;;6.35;100.00;101821.98;102409;1318;61694;-76
2021/11/24 04:31:24;;;;;;;21.80;10.60;;;;;;;6.35;100.00;101816.70;102393;1318;75042;-76
2021/11/24 04:34:15;;;;;;;23.40;10.20;;;;;;;6.35;100.00;101820.60;102220;1312;72507;-76
2021/11/24 04:37:00;;;;;;;24.80;11.10;;;;;;;6.33;100.00;101820.70;102447;1315;71726;-77
2021/11/24 04:42:22;;;;;;;25.00;10.90;;;;;;;6.32;100.00;101818.86;102415;1322;61553;-77
2021/11/24 04:44:54;;;;;;;26.20;12.00;;;;;;;6.30;100.00;101813.05;102480;1319;75127;-76
2021/11/24 04:47:45;;;;;;;;;;;;;;;;;;;;;
2021/11/24 04:50:20;;;;;;;26.50;11.40;;;;;;;6.28;100.00;101808.09;102696;1315;73967;-79
2021/11/24 04:52:50;;;;;;;30.10;12.20;;;;;;;6.24;100.00;101807.56;102463;1317;61156;-76
2021/11/24 04:55:23;;;;;;;21.80;10.10;;;;;;;6.19;100.00;101805.50;102743;1316;61433;-76
2021/11/24 04:57:57;;;;;;;23.50;10.60;;;;;;;6.14;100.00;101802.86;102425;1318;74987;-78
2021/11/24 05:00:29;;;;;;;25.00;12.40;;;;;;;6.10;100.00;101801.04;102511;1316;71449;-76
2021/11/24 05:03:27;;;;;;;24.60;10.50;;;;;;;6.08;100.00;101797.40;102458;1318;72949;-79
2021/11/24 05:06:02;;;;;;;27.10;11.10;;;;;;;6.05;100.00;101797.23;102563;1318;63524;-76
2021/11/24 05:08:29;;;;;;;23.70;11.40;;;;;;;6.04;100.00;101794.70;102404;1316;61573;-76
2021/11/24 05:11:06;;;;;;;19.70;9.40;;;;;;;6.01;100.00;101789.82;102352;1318;76286;-77
2021/11/24 05:13:44;;;;;;;;;;;;;;;;;;;;;
2021/11/24 05:16:33;;;;;;;;;;;;;;;;;;;;;
2021/11/24 05:19:06;;;;;;;20.70;10.60;;;;;;;5.99;100.00;101785.45;102312;1316;63273;-76
2021/11/24 05:21:58;;;;;;;24.00;10.60;;;;;;;5.99;100.00;101786.29;102670;1316;62525;-75
2021/11/24 05:24:30;;;;;;;25.50;10.80;;;;;;;6.00;100.00;101788.50;103544;1317;74927;-78
2021/11/24 05:27:14;;;;;;;;;;;;;;;;;;;;;
2021/11/24 05:30:05;;;;;;;23.40;9.20;;;;;;;6.02;100.00;101791.02;102466;1318;73693;-78
2021/11/24 05:32:30;;;;;;;19.70;9.00;;;;;;;6.00;100.00;101796.02;102585;1318;62658;-77
2021/11/24 05:35:21;;;;;;;20.60;9.00;;;;;;;6.00;100.00;101801.14;102618;1318;61479;-79
2021/11/24 05:37:49;;;;;;;22.50;10.10;;;;;;;5.99;100.00;101803.84;102823;1318;75097;-77
2021/11/24 05:40:41;;;;;;;21.10;9.70;;;;;;;5.97;100.00;101800.86;102578;1318;71650;-79
2021/11/24 05:43:13;;;;;;;24.10;9.70;;;;;;;5.95;100.00;101795.59;102439;1316;74129;-78
2021/11/24 05:49:03;;;;;;;24.70;10.00;;;;;;;5.92;100.00;101792.05;102346;1316;62391;-81
2021/11/24 05:51:59;;;;;;;24.90;9.90;;;;;;;5.90;100.00;101790.25;102664;1316;75881;-79
2021/11/24 05:54:57;;;;;;;;;;;;;;;;;;;;;
2021/11/24 05:57:45;;;;;;;;;;;;;;;;;;;;;
2021/11/24 06:00:33;;;;;;;21.60;11.50;;;;;;;5.95;100.00;101788.55;102343;1320;62693;-78
2021/11/24 06:03:44;;;;;;;24.60;10.50;;;;;;;5.94;100.00;101785.25;102954;1319;61311;-80
2021/11/24 06:06:26;;;;;;;;;;;;;;;;;;;;;
2021/11/24 06:09:38;;;;;;;21.70;10.00;;;;;;;5.90;100.00;101772.41;102339;1321;71402;-77
2021/11/24 06:12:52;;;;;;;21.00;10.40;;;;;;;5.87;100.00;101773.80;102430;1321;72994;-76
2021/11/24 06:15:23;;;;;;;21.80;9.50;;;;;;;5.86;100.00;101765.66;102059;1318;61378;-77
2021/11/24 06:17:53;;;;;;;18.90;8.90;;;;;;;5.85;100.00;101767.14;102219;1322;61645;-76
2021/11/24 06:20:32;;;;;;;23.80;9.60;;;;;;;5.83;100.00;101767.34;102500;1317;74949;-76
2021/11/24 06:23:21;;;;;;;21.70;10.10;;;;;;;5.82;100.00;101767.23;102374;1317;71146;-77
2021/11/24 06:25:50;;;;;;;21.90;9.30;;;;;;;5.81;100.00;101763.95;102313;1321;571778;-78
2021/11/24 06:28:22;;;;;;;23.40;11.20;;;;;;;5.80;100.00;101762.61;102269;1317;61455;-78
2021/11/24 06:31:29;;;;;;;;;;;;;;;;;;;;;
2021/11/24 06:34:03;;;;;;;30.50;11.80;;;;;;;5.76;100.00;101767.17;102784;1316;75990;-79
2021/11/24 06:36:58;;;;;;;25.00;11.30;;;;;;;5.73;100.00;101767.23;102788;1315;73408;-77
2021/11/24 06:39:30;;;;;;;24.80;10.50;;;;;;;5.69;100.00;101766.59;102806;1315;74079;-77
2021/11/24 06:42:23;;;;;;;24.20;10.10;;;;;;;5.68;100.00;101764.95;102602;1315;62278;-78
2021/11/24 06:45:07;;;;;;;19.00;9.40;;;;;;;5.67;100.00;101758.64;102756;1315;61351;-78
2021/11/24 06:48:03;;;;;;;;;;;;;;;;;;;;;
2021/11/24 06:50:30;;;;;;;22.00;9.20;;;;;;;5.69;100.00;101760.14;102488;1318;72934;-76
2021/11/24 06:53:02;;;;;;;21.90;9.50;;;;;;;5.72;100.00;101763.20;102476;1322;72156;-77
2021/11/24 06:55:40;;;;;;;18.40;8.60;;;;;;;5.77;100.00;101766.05;102720;1319;62449;-77
2021/11/24 06:58:51;;;;;;;20.60;9.70;;;;;;;5.80;100.00;101762.97;102504;1318;62413;-78
2021/11/24 07:01:20;;;;;;;21.90;8.90;;;;;;;5.84;100.00;101766.16;102570;1317;76048;-78
2021/11/24 07:04:01;;;;;;;21.50;8.80;;;;;;;5.89;100.00;101768.27;102716;1319;73022;-78
2021/11/24 07:06:57;;;;;;;22.30;9.40;;;;;;;5.93;100.00;101767.77;102618;1316;73061;-79
2021/11/24 07:09:47;;;;;;;;;;;;;;;;;;;;;
2021/11/24 07:12:58;;;;;;;19.40;9.10;;;;;;;5.98;100.00;101767.30;102905;1316;61389;-79
2021/11/24 07:15:27;;;;;;;18.70;8.80;;;;;;;5.99;100.00;101768.27;103449;1318;75535;-78
2021/11/24 07:18:03;;;;;;;19.00;9.90;;;;;;;5.99;100.00;101771.59;102843;1317;72236;-79
2021/11/24 07:21:14;;;;;;;20.60;8.90;;;;;;;5.98;100.00;101767.24;102853;1316;74133;-78
2021/11/24 07:24:05;;;;;;;20.80;9.40;;;;;;;5.99;100.00;101768.23;102660;1316;61691;-78
2021/11/24 07:26:55;;;;;;;23.40;10.50;;;;;;;5.99;100.00;101768.89;102817;1318;61314;-80
2021/11/24 07:29:38;;;;;;;20.00;9.70;;;;;;;6.00;100.00;101765.19;102787;1318;74958;-80
2021/11/24 07:32:09;;;;;;;23.40;10.30;;;;;;;6.00;100.00;101766.56;103715;1316;71415;-78
2021/11/24 07:34:40;;;;;;;21.70;9.70;;;;;;;6.00;100.00;101757.11;102590;1315;73148;-78
2021/11/24 07:37:20;;;;;;;21.60;9.90;;;;;;;5.99;100.00;101756.85;102544;1317;62463;-77
2021/11/24 07:39:47;;;;;;;24.70;9.90;;;;;;;5.97;100.00;101751.70;102565;1317;61681;-76
2021/11/24 07:42:21;;;;;;;20.70;8.80;;;;;;;5.96;100.00;101751.77;102464;1321;76240;-76
2021/11/24 07:44:58;;;;;;;18.80;8.40;;;;;;;5.97;100.00;101754.89;102635;1316;72464;-76
2021/11/24 07:47:27;;;;;;;18.40;8.90;;;;;;;5.97;100.00;101754.13;102512;1317;72985;-76
2021/11/24 07:49:54;;;;;;;18.40;8.90;;;;;;;5.99;100.00;101759.48;102510;1318;61839;-78
2021/11/24 07:52:55;;;;;;;27.40;11.70;;;;;;;5.99;100.00;101759.11;102549;1316;61330;-76
2021/11/24 07:55:22;;;;;;;21.90;10.40;;;;;;;6.00;100.00;101758.29;102489;1317;73898;-77
2021/11/24 07:57:51;;;;;;;24.10;10.00;;;;;;;6.01;100.00;101755.43;102530;1316;71469;-77
2021/11/24 08:00:55;;;;;;;;;;;;;;;;;;;;;
2021/11/24 08:03:39;;;;;;;21.90;10.10;;;;;;;6.06;100.00;101754.89;102553;1316;62417;-77
2021/11/24 08:06:09;;;;;;;21.00;10.00;;;;;;;6.08;100.00;101757.36;102558;1320;60812;-79
2021/11/24 08:08:38;;;;;;;24.20;10.10;;;;;;;6.09;99.98;101756.73;102455;1319;75137;-77
2021/11/24 08:11:25;;;;;;;22.60;10.20;;;;;;;6.09;100.00;101756.02;102615;1318;71458;-79
2021/11/24 08:14:02;;;;;;;18.00;9.10;;;;;;;6.08;99.80;101752.73;102568;1316;72998;-77
2021/11/24 08:17:30;;;;;;;22.90;9.60;;;;;;;6.06;99.85;101752.23;102481;1321;62933;-78
2021/11/24 08:20:16;;;;;;;;;;;;;;;;;;;;;
2021/11/24 08:22:47;;;;;;;21.00;9.60;;;;;;;6.11;99.76;101754.77;102737;1318;75030;-77
2021/11/24 08:25:38;;;;;;;27.70;10.50;;;;;;;6.14;99.80;101753.36;102520;1318;71468;-78
2021/11/24 08:28:17;;;;;;;17.70;8.20;;;;;;;6.17;99.71;101748.25;102594;1316;73987;-79
2021/11/24 08:30:44;;;;;;;22.80;9.40;;;;;;;6.18;99.31;101743.05;102458;1318;62286;-76
2021/11/24 08:33:25;;;;;;;;;;;;;;;;;;;;;
2021/11/24 08:36:02;;;;;;;21.00;9.80;;;;;;;6.23;99.14;101734.44;102823;1317;75133;-80
2021/11/24 08:38:52;;;;;;;23.90;10.00;;;;;;;6.25;98.95;101733.38;102670;1317;72177;-79
2021/11/24 08:41:45;;;;;;;20.70;9.70;;;;;;;6.29;98.90;101726.73;102934;1318;74732;-79
2021/11/24 08:44:21;;;;;;;22.40;9.80;;;;;;;6.34;99.07;101720.52;103428;1317;63079;-77
2021/11/24 08:47:13;;;;;;;21.10;9.20;;;;;;;6.38;98.66;101715.84;102935;1317;61883;-77
2021/11/24 08:49:41;;;;;;;21.10;9.70;;;;;;;6.41;98.72;101718.17;102290;1317;76015;-76
2021/11/24 08:52:40;;;;;;;19.70;9.50;;;;;;;6.42;98.17;101708.30;102321;1317;71427;-77
2021/11/24 08:55:20;;;;;;;;;;;;;;;;;;;;;
2021/11/24 08:58:01;;;;;;;26.00;10.50;;;;;;;6.43;97.74;101710.98;102622;1317;63306;-79
2021/11/24 09:00:30;;;;;;;21.20;9.30;;;;;;;6.45;97.95;101709.95;102695;1316;61232;-77
2021/11/24 09:03:27;;;;;;;20.70;9.30;;;;;;;6.49;97.46;101708.27;102755;1317;74895;-79
2021/11/24 09:05:56;;;;;;;20.20;10.20;;;;;;;6.52;97.25;101706.05;102339;1321;72422;-76
2021/11/24 09:08:29;;;;;;;21.30;10.00;;;;;;;6.56;97.31;101705.79;102641;1317;73582;-76
2021/11/24 09:11:07;;;;;;;26.80;12.00;;;;;;;6.59;97.31;101701.33;102501;1316;62031;-78
2021/11/24 09:14:35;;;;;;;23.80;9.70;;;;;;;6.64;97.17;101702.51;102821;1316;60747;-80
2021/11/24 09:17:09;;;;;;;21.40;9.40;;;;;;;6.68;96.63;101700.92;102228;1316;76066;-77
2021/11/24 09:19:40;;;;;;;22.30;10.10;;;;;;;6.70;96.89;101698.47;102698;1317;71618;-77
2021/11/24 09:23:01;;;;;;;21.00;9.30;;;;;;;6.74;96.92;101700.05;102714;1322;74621;-79
2021/11/24 09:26:14;;;;;;;;;;;;;;;;;;;;;
2021/11/24 09:28:44;;;;;;;15.50;7.20;;;;;;;6.79;96.37;101700.05;102470;1318;62194;-78
2021/11/24 09:31:17;;;;;;;20.40;9.00;;;;;;;6.80;96.02;101698.05;102508;1317;74612;-77
2021/11/24 09:34:01;;;;;;;20.90;9.50;;;;;;;6.81;95.80;101699.50;102375;1318;72441;-78
2021/11/24 09:36:41;;;;;;;18.20;8.30;;;;;;;6.82;95.87;101699.43;102486;1320;74144;-79
2021/11/24 09:39:11;;;;;;;18.90;8.50;;;;;;;6.84;95.56;101699.27;102516;1318;62340;-78
2021/11/24 09:42:07;;;;;;;18.20;8.40;;;;;;;6.88;95.81;101695.57;102350;1319;61311;-75
2021/11/24 09:44:56;;;;;;;18.40;9.00;;;;;;;6.91;95.26;101696.20;102330;1318;75787;-77
2021/11/24 09:47:32;;;;;;;18.00;8.80;;;;;;;6.93;95.05;101696.06;102399;1318;72331;-76
2021/11/24 09:50:35;;;;;;;24.40;10.20;;;;;;;6.94;94.73;101694.91;102330;1318;72714;-76
2021/11/24 09:53:04;;;;;;;18.40;8.80;;;;;;;6.97;94.29;101687.84;102446;1318;62306;-76
2021/11/24 09:56:23;;;;;;;17.90;9.10;;;;;;;7.01;94.28;101685.36;102363;1322;61593;-77
2021/11/24 09:59:30;;;;;;;18.80;7.80;;;;;;;7.06;94.14;101682.34;102232;1318;74806;-77
2021/11/24 10:02:23;;;;;;;18.40;8.40;;;;;;;7.08;93.93;101679.92;102677;1317;71461;-79
2021/11/24 10:04:53;;;;;;;21.00;8.50;;;;;;;7.13;94.38;101673.84;102556;1317;72871;-77
2021/11/24 10:07:22;;;;;;;20.20;9.20;;;;;;;7.20;94.58;101670.25;102489;1319;61682;-77
2021/11/24 10:10:19;;;;;;;14.60;5.90;;;;;;;7.27;94.17;101667.91;102425;1318;61550;-78
2021/11/24 10:12:46;;;;;;;17.10;8.60;;;;;;;7.29;93.29;101664.07;102217;1322;76028;-76
2021/11/24 10:16:08;;;;;;;20.40;8.90;;;;;;;7.32;93.56;101655.72;102304;1325;71522;-76
2021/11/24 10:19:01;;;;;;;17.10;8.50;;;;;;;7.42;93.54;101654.02;102458;1322;72662;-79
2021/11/24 10:22:01;;;;;;;19.20;8.90;;;;;;;7.48;93.37;101648.19;102635;1318;61688;-81
2021/11/24 10:24:45;;;;;;;16.00;8.80;;;;;;;7.51;92.10;101646.48;102787;1317;61348;-80
2021/11/24 10:27:14;;;;;;;16.50;8.10;;;;;;;7.52;91.39;101643.11;102638;1321;76101;-76
2021/11/24 10:30:29;;;;;;;17.30;8.20;;;;;;;7.51;91.76;101639.65;102647;1318;74360;-79
2021/11/24 10:33:17;;;;;;;16.90;8.30;;;;;;;7.54;91.54;101633.40;102706;1316;72921;-79
2021/11/24 10:35:44;;;;;;;21.20;8.50;;;;;;;7.57;91.49;101630.70;102491;1316;62248;-79
2021/11/24 10:38:56;;;;;;;13.70;7.20;;;;;;;7.57;90.98;101625.59;102758;1320;62026;-79
2021/11/24 10:42:29;;;;;;;16.10;7.70;;;;;;;7.59;90.86;101621.04;102880;1317;75144;-77
2021/11/24 10:45:21;;;;;;;16.20;7.80;;;;;;;7.60;90.04;101617.39;102719;1319;72457;-77
2021/11/24 10:48:23;;;;;;;14.00;6.70;;;;;;;7.60;89.59;101613.42;103156;1316;73582;-76
2021/11/24 10:50:50;;;;;;;14.00;6.90;;;;;;;7.62;89.53;101616.58;102420;1316;63333;-80
2021/11/24 10:53:25;;;;;;;16.30;6.30;;;;;;;7.63;89.40;101614.66;102729;1316;61599;-79
2021/11/24 10:55:53;;;;;;;14.60;7.40;;;;;;;7.63;89.34;101611.67;102711;1317;75942;-78
2021/11/24 10:58:27;;;;;;;15.30;6.80;;;;;;;7.62;88.63;101607.20;102899;1316;71055;-77
2021/11/24 11:00:59;;;;;;;11.30;5.80;;;;;;;7.59;88.82;101607.83;102519;1317;73036;-79
2021/11/24 11:03:47;;;;;;;18.80;8.00;;;;;;;7.58;88.76;101604.58;102603;1319;62320;-75
2021/11/24 11:06:40;;;;;;;12.10;6.20;;;;;;;7.57;88.18;101597.98;102583;1316;61447;-77
2021/11/24 11:09:07;;;;;;;15.70;6.80;;;;;;;7.58;88.72;101590.65;102336;1318;74976;-76
2021/11/24 11:11:40;;;;;;;17.70;7.50;;;;;;;7.58;88.42;101589.23;102269;1317;72444;-78
2021/11/24 11:14:35;;;;;;;12.80;6.70;;;;;;;7.54;87.52;101583.59;102563;1320;72931;-80
2021/11/24 11:17:58;;;;;;;;;;;;;;;;;;;;;
2021/11/24 11:21:22;;;;;;;;;;;;;;;;;;;;;
2021/11/24 11:24:09;;;;;;;17.40;7.60;;;;;;;7.59;88.28;101569.45;102374;1321;74402;-76
2021/11/24 11:26:42;;;;;;;12.90;5.60;;;;;;;7.61;87.60;101564.02;102405;1317;73197;-76
2021/11/24 11:29:09;;;;;;;14.20;6.70;;;;;;;7.60;87.80;101557.77;102319;1316;74117;-77
2021/11/24 11:31:39;;;;;;;13.40;7.10;;;;;;;7.61;87.65;101554.11;102401;1316;62063;-79
2021/11/24 11:34:10;;;;;;;12.90;5.70;;;;;;;7.62;87.23;101551.02;102532;1316;62142;-78
2021/11/24 11:36:37;;;;;;;12.50;6.80;;;;;;;7.63;87.73;101544.14;102736;1316;76280;-79
2021/11/24 11:39:07;;;;;;;12.70;6.60;;;;;;;7.62;87.22;101539.10;102501;1317;72959;-78
2021/11/24 11:41:37;;;;;;;13.40;6.50;;;;;;;7.64;87.10;101539.45;102381;1321;74178;-76
2021/11/24 11:44:27;;;;;;;12.60;5.80;;;;;;;7.65;86.70;101536.53;102154;1317;64384;-76
2021/11/24 11:47:14;;;;;;;13.20;6.00;;;;;;;7.69;87.50;101536.54;102127;1318;62426;-76
2021/11/24 11:49:54;;;;;;;11.60;5.50;;;;;;;7.71;87.26;101531.38;102520;1320;74951;-78
2021/11/24 11:52:23;;;;;;;13.20;6.10;;;;;;;7.71;86.39;101530.00;102515;1317;71375;-76
2021/11/24 11:55:58;;;;;;;10.50;5.80;;;;;;;7.71;86.23;101527.04;102640;1316;72865;-79
2021/11/24 11:58:26;;;;;;;11.10;5.30;;;;;;;7.70;86.69;101521.64;102214;1319;61333;-76
2021/11/24 12:01:49;;;;;;;13.60;6.90;;;;;;;7.70;86.64;101516.91;102663;1316;61232;-79
2021/11/24 12:04:30;;;;;;;11.40;5.00;;;;;;;7.68;86.11;101508.48;102462;1317;74993;-76
2021/11/24 12:06:57;;;;;;;13.80;5.70;;;;;;;7.66;86.06;101505.42;102597;1317;72300;-76
2021/11/24 12:10:30;;;;;;;;;;;;;;;;;;;;;
2021/11/24 12:13:07;;;;;;;10.90;5.20;;;;;;;7.61;85.41;101493.95;102411;1322;61325;-79
2021/11/24 12:16:35;;;;;;;7.10;3.50;;;;;;;7.58;86.46;101493.32;102496;1317;61806;-77
2021/11/24 12:20:40;;;;;;;14.40;5.90;;;;;;;7.51;86.09;101488.23;102414;1316;75743;-76
2021/11/24 12:25:38;;;;;;;;;;;;;;;7.52;86.46;101467.98;102498;1317;74130;-77
2021/11/24 12:28:13;;;;;;;13.20;5.00;;;;;;;7.52;86.37;101460.76;102499;1317;60687;-76
2021/11/24 12:30:50;;;;;;;11.60;5.50;;;;;;;7.51;85.91;101455.16;102605;1317;61426;-79
2021/11/24 12:33:38;;;;;;;13.50;5.90;;;;;;;7.54;86.56;101455.14;103107;1319;73811;-80
2021/11/24 12:36:20;;;;;;;10.20;4.80;;;;;;;7.55;86.20;101450.43;102783;1318;71779;-77
2021/11/24 12:39:01;;;;;;;10.90;4.80;;;;;;;7.57;85.85;101441.69;102618;1322;72951;-79
2021/11/24 12:41:44;;;;;;;10.20;4.50;;;;;;;7.57;85.09;101435.67;102726;1318;63557;-79
2021/11/24 12:44:13;;;;;;;11.40;4.00;;;;;;;7.57;85.06;101426.36;102638;1317;61694;-78
2021/11/24 12:47:24;;;;;;;10.90;4.50;;;;;;;7.57;85.13;101423.04;102761;1316;76134;-79
2021/11/24 12:50:04;;;;;;;11.80;5.70;;;;;;;7.54;84.66;101420.77;102872;1316;72852;-80
2021/11/24 12:52:31;;;;;;;12.10;4.90;;;;;;;7.52;85.16;101418.55;102663;1325;72923;-76
2021/11/24 12:55:30;;;;;;;11.30;5.10;;;;;;;7.50;85.18;101416.20;102794;1317;63095;-79
2021/11/24 12:58:22;;;;;;;12.00;5.00;;;;;;;7.48;85.11;101411.64;102700;1317;61970;-80
2021/11/24 13:00:52;;;;;;;9.70;3.40;;;;;;;7.46;83.73;101412.50;102816;1315;75156;-80
2021/11/24 13:03:27;;;;;;;9.10;3.70;;;;;;;7.42;84.23;101412.86;102390;1317;72590;-77
2021/11/24 13:05:58;;;;;;;8.40;4.40;;;;;;;7.39;84.24;101413.35;102587;1318;72854;-77
2021/11/24 13:08:30;;;;;;;13.30;5.20;;;;;;;7.35;84.36;101410.52;102645;1318;61707;-80
2021/11/24 13:11:11;;;;;;;10.10;4.50;;;;;;;7.33;85.10;101402.42;103109;1318;61430;-77
2021/11/24 13:14:01;;;;;;;9.30;4.30;;;;;;;7.30;84.06;101398.98;102453;1317;76107;-77
2021/11/24 13:16:36;;;;;;;10.20;3.90;;;;;;;7.26;82.89;101393.91;102474;1318;71383;-77
2021/11/24 13:19:09;;;;;;;7.20;3.70;;;;;;;7.22;83.11;101390.71;102543;1316;74065;-78
2021/11/24 13:21:57;;;;;;;7.40;3.80;;;;;;;7.17;82.90;101394.14;102250;1320;61387;-79
2021/11/24 13:24:27;;;;;;;6.80;3.50;;;;;;;7.12;82.61;101390.19;102604;1316;61372;-79
2021/11/24 13:26:57;;;;;;;10.40;3.90;;;;;;;7.09;83.18;101384.13;102647;1321;75910;-77
2021/11/24 13:29:47;;;;;;;;;;;;;;;;;;;;;
2021/11/24 13:32:16;;;;;;;7.40;3.70;;;;;;;7.06;83.42;101377.23;102554;1316;72956;-77
2021/11/24 13:35:03;;;;;;;7.80;4.40;;;;;;;7.04;83.81;101377.59;102475;1318;61389;-78
2021/11/24 13:37:34;;;;;;;9.40;4.00;;;;;;;7.00;83.66;101377.40;102518;1318;61367;-78
2021/11/24 13:40:49;;;;;;;8.20;4.10;;;;;;;6.95;83.41;101373.77;102805;1316;75883;-79
2021/11/24 13:44:00;;;;;;;9.60;4.10;;;;;;;6.93;84.13;101370.56;102557;1320;72434;-79
2021/11/24 13:47:09;;;;;;;9.40;3.90;;;;;;;6.90;83.96;101367.14;102471;1318;74415;-78
2021/11/24 13:49:56;;;;;;;;;;;;;;;;;;;;;
2021/11/24 13:52:30;;;;;;;12.80;5.00;;;;;;;6.85;84.49;101358.24;102712;1316;60490;-79
2021/11/24 13:55:29;;;;;;;7.10;2.60;;;;;;;6.82;85.37;101356.04;102662;1317;75456;-76
2021/11/24 13:58:06;;;;;;;12.30;5.00;;;;;;;6.80;85.73;101355.36;102671;1315;71212;-79
2021/11/24 14:00:42;;;;;;;8.90;4.30;;;;;;;6.81;85.80;101352.11;102623;1316;71885;-78
2021/11/24 14:03:11;;;;;;;7.20;3.50;;;;;;;6.81;85.45;101347.88;102507;1321;63669;-76
2021/11/24 14:06:01;;;;;;;11.60;4.40;;;;;;;6.78;84.04;101348.48;102486;1318;61318;-77
2021/11/24 14:08:37;;;;;;;9.40;4.30;;;;;;;6.77;85.01;101342.11;102979;1317;76127;-79
2021/11/24 14:11:34;;;;;;;8.30;4.40;;;;;;;6.75;84.66;101339.63;102663;1317;72914;-78
2021/11/24 14:14:40;;;;;;;7.20;3.60;;;;;;;6.73;85.33;101338.55;102466;1319;73604;-77
2021/11/24 14:17:08;;;;;;;10.20;3.80;;;;;;;6.72;85.72;101342.90;102376;1316;63260;-78
2021/11/24 14:19:37;;;;;;;8.40;4.10;;;;;;;6.71;85.23;101345.78;102881;1316;61582;-78
2021/11/24 14:22:10;;;;;;;8.20;4.00;;;;;;;6.69;85.05;101339.63;102685;1317;76262;-77
2021/11/24 14:24:40;;;;;;;8.70;3.90;;;;;;;6.67;84.56;101338.55;102579;1315;72278;-79
2021/11/24 14:27:11;;;;;;;6.50;4.00;;;;;;;6.66;84.56;101335.70;102394;1317;71801;-79